createdAt,value
2023-04-01T00:02:14.199Z,98934.47
2023-04-01T00:05:17.658Z,98946.19
2023-04-01T00:08:20.607Z,98944.53
2023-04-01T00:11:23.479Z,98950.19
2023-04-01T00:14:26.705Z,98948.50
2023-04-01T00:17:29.358Z,98945.16
2023-04-01T00:20:32.116Z,98948.16
2023-04-01T00:23:36.140Z,98939.50
2023-04-01T00:26:39.040Z,98937.72
2023-04-01T00:29:47.811Z,98944.13
2023-04-01T00:32:54.666Z,98931.38
2023-04-01T00:35:57.297Z,98936.34
2023-04-01T00:39:00.484Z,98926.59
2023-04-01T00:42:04.589Z,98931.56
2023-04-01T00:45:25.926Z,98928.03
2023-04-01T00:48:42.416Z,98925.91
2023-04-01T00:51:47.260Z,98926.06
2023-04-01T00:54:53.669Z,98918.25
2023-04-01T00:57:58.315Z,98924.38
2023-04-01T01:01:01.873Z,98914.94
2023-04-01T01:04:04.976Z,98917.56
2023-04-01T01:07:26.072Z,98919.25
2023-04-01T01:10:35.510Z,98916.97
2023-04-01T01:13:54.733Z,98909.03
2023-04-01T01:17:06.126Z,98922.69
2023-04-01T01:20:36.607Z,98925.03
2023-04-01T01:24:16.982Z,98917.72
2023-04-01T01:27:22.531Z,98916.75
2023-04-01T01:30:45.143Z,98901.50
2023-04-01T01:33:59.299Z,98902.47
2023-04-01T01:37:09.249Z,98907.78
2023-04-01T01:40:16.164Z,98899.84
2023-04-01T01:43:23.833Z,98900.66
2023-04-01T01:46:29.083Z,98898.19
2023-04-01T01:49:35.549Z,98907.78
2023-04-01T01:52:38.512Z,98902.16
2023-04-01T01:55:44.123Z,98911.75
2023-04-01T01:58:53.009Z,98903.16
2023-04-01T02:01:58.462Z,98907.94
2023-04-01T02:05:02.583Z,98902.66
2023-04-01T02:08:22.892Z,98895.19
2023-04-01T02:11:38.201Z,98900.00
2023-04-01T02:14:50.707Z,98890.72
2023-04-01T02:17:55.382Z,98893.88
2023-04-01T02:21:00.338Z,98891.56
2023-04-01T02:24:06.890Z,98889.25
2023-04-01T02:27:11.657Z,98891.56
2023-04-01T02:30:17.916Z,98885.59
2023-04-01T02:33:22.134Z,98878.97
2023-04-01T02:36:26.031Z,98875.66
2023-04-01T02:39:28.633Z,98876.63
2023-04-01T02:42:31.207Z,98868.50
2023-04-01T02:45:34.083Z,98866.03
2023-04-01T02:48:37.023Z,98875.66
2023-04-01T02:51:39.630Z,98876.31
2023-04-01T02:54:42.714Z,98874.97
2023-04-01T02:57:45.400Z,98881.59
2023-04-01T03:00:48.276Z,98887.06
2023-04-01T03:03:50.978Z,98882.44
2023-04-01T03:06:53.838Z,98872.66
2023-04-01T03:09:56.473Z,98885.59
2023-04-01T03:12:59.065Z,98891.22
2023-04-01T03:16:02.241Z,98891.69
2023-04-01T03:19:04.882Z,98881.56
2023-04-01T03:22:08.906Z,98867.69
2023-04-01T03:25:11.627Z,98880.28
2023-04-01T03:28:14.783Z,98885.59
2023-04-01T03:31:17.503Z,98893.53
2023-04-01T03:34:27.271Z,98898.50
2023-04-01T03:37:29.887Z,98896.53
2023-04-01T03:40:34.119Z,98899.81
2023-04-01T03:43:37.023Z,98907.75
2023-04-01T03:46:45.079Z,98907.56
2023-04-01T03:49:47.804Z,98917.00
2023-04-01T03:52:52.256Z,98919.69
2023-04-01T03:55:55.374Z,98917.00
2023-04-01T03:58:58.351Z,98918.44
2023-04-01T04:02:01.331Z,98927.59
2023-04-01T04:05:04.722Z,98922.28
2023-04-01T04:08:09.668Z,98912.69
2023-04-01T04:11:12.480Z,98917.66
2023-04-01T04:14:18.194Z,98921.94
2023-04-01T04:17:21.803Z,98925.88
2023-04-01T04:20:24.510Z,98921.69
2023-04-01T04:23:28.128Z,98924.16
2023-04-01T04:26:30.891Z,98919.81
2023-04-01T04:29:36.337Z,98922.78
2023-04-01T04:32:39.094Z,98921.00
2023-04-01T04:35:41.835Z,98910.72
2023-04-01T04:38:44.826Z,98904.69
2023-04-01T04:41:47.677Z,98904.53
2023-04-01T04:44:50.299Z,98904.88
2023-04-01T04:47:53.181Z,98906.03
2023-04-01T04:50:55.727Z,98900.59
2023-04-01T04:53:59.874Z,98903.06
2023-04-01T04:57:17.701Z,98899.38
2023-04-01T05:00:27.648Z,98903.56
2023-04-01T05:03:34.213Z,98908.09
2023-04-01T05:06:36.849Z,98912.34
2023-04-01T05:09:39.860Z,98896.44
2023-04-01T05:12:42.760Z,98904.06
2023-04-01T05:15:47.209Z,98909.06
2023-04-01T05:18:50.006Z,98910.91
2023-04-01T05:21:53.986Z,98905.13
2023-04-01T05:24:56.794Z,98912.75
2023-04-01T05:27:59.803Z,98916.56
2023-04-01T05:31:03.977Z,98922.38
2023-04-01T05:34:12.825Z,98915.56
2023-04-01T05:37:15.502Z,98920.75
2023-04-01T05:40:19.184Z,98926.81
2023-04-01T05:43:21.824Z,98920.84
2023-04-01T05:46:26.477Z,98924.28
2023-04-01T05:49:35.059Z,98915.66
2023-04-01T05:52:39.623Z,98912.91
2023-04-01T05:55:42.374Z,98904.19
2023-04-01T05:58:51.327Z,98914.09
2023-04-01T06:01:54.515Z,98916.03
2023-04-01T06:05:25.343Z,98915.34
2023-04-01T06:08:29.350Z,98919.88
2023-04-01T06:11:44.731Z,98909.91
2023-04-01T06:14:53.216Z,98910.66
2023-04-01T06:18:26.827Z,98919.75
2023-04-01T06:21:37.213Z,98912.53
2023-04-01T06:24:49.529Z,98897.41
2023-04-01T06:27:58.818Z,98902.72
2023-04-01T06:31:09.261Z,98910.50
2023-04-01T06:34:33.597Z,98914.72
2023-04-01T06:38:02.562Z,98913.91
2023-04-01T06:41:14.219Z,98915.69
2023-04-01T06:44:36.079Z,98917.81
2023-04-01T06:48:26.129Z,98922.59
2023-04-01T06:52:18.130Z,98923.69
2023-04-01T06:55:47.091Z,98923.56
2023-04-01T06:59:08.204Z,98927.38
2023-04-01T07:02:11.062Z,98927.44
2023-04-01T07:05:16.170Z,98914.31
2023-04-01T07:08:27.878Z,98920.00
2023-04-01T07:11:35.557Z,98928.38
2023-04-01T07:15:29.377Z,98917.56
2023-04-01T07:18:47.371Z,98928.78
2023-04-01T07:21:55.887Z,98920.78
2023-04-01T07:25:29.423Z,98922.16
2023-04-01T07:28:53.133Z,98912.31
2023-04-01T07:32:29.566Z,98923.41
2023-04-01T07:35:49.257Z,98919.09
2023-04-01T07:39:42.609Z,98928.91
2023-04-01T07:43:32.422Z,98941.16
2023-04-01T07:46:59.317Z,98925.09
2023-04-01T07:50:27.746Z,98920.97
2023-04-01T07:53:53.026Z,98924.53
2023-04-01T07:57:03.287Z,98927.34
2023-04-01T08:00:42.632Z,98929.56
2023-04-01T08:04:20.172Z,98921.56
2023-04-01T08:07:45.179Z,98926.22
2023-04-01T08:11:35.156Z,98930.78
2023-04-01T08:15:05.431Z,98933.75
2023-04-01T08:18:47.369Z,98936.66
2023-04-01T08:21:56.294Z,98932.53
2023-04-01T08:25:03.694Z,98934.16
2023-04-01T08:28:09.423Z,98932.13
2023-04-01T08:31:24.063Z,98938.09
2023-04-01T08:34:35.355Z,98927.25
2023-04-01T08:37:42.892Z,98930.88
2023-04-01T08:41:01.409Z,98919.81
2023-04-01T08:44:48.976Z,98917.31
2023-04-01T08:48:13.407Z,98915.31
2023-04-01T08:51:47.151Z,98919.34
2023-04-01T08:55:24.900Z,98930.06
2023-04-01T08:58:58.057Z,98929.72
2023-04-01T09:02:16.897Z,98930.69
2023-04-01T09:06:13.212Z,98918.75
2023-04-01T09:09:24.735Z,98922.59
2023-04-01T09:12:48.517Z,98919.38
2023-04-01T09:16:10.481Z,98924.84
2023-04-01T09:19:32.501Z,98933.25
2023-04-01T09:22:43.709Z,98930.31
2023-04-01T09:25:56.150Z,98922.53
2023-04-01T09:29:08.161Z,98922.78
2023-04-01T09:32:48.313Z,98922.31
2023-04-01T09:36:19.926Z,98927.19
2023-04-01T09:39:44.452Z,98918.16
2023-04-01T09:43:01.839Z,98934.75
2023-04-01T09:46:18.740Z,98934.13
2023-04-01T09:49:44.184Z,98941.72
2023-04-01T09:53:07.234Z,98941.19
2023-04-01T09:56:10.045Z,98942.75
2023-04-01T09:59:55.420Z,98959.25
2023-04-01T10:03:54.278Z,98950.09
2023-04-01T10:07:15.961Z,98946.41
2023-04-01T10:10:20.303Z,98948.09
2023-04-01T10:13:46.598Z,98952.25
2023-04-01T10:17:08.751Z,98953.59
2023-04-01T10:20:27.340Z,98956.41
2023-04-01T10:24:06.337Z,98946.19
2023-04-01T10:27:28.272Z,98949.50
2023-04-01T10:30:50.235Z,98950.06
2023-04-01T10:34:32.890Z,98951.00
2023-04-01T10:37:47.864Z,98954.50
2023-04-01T10:41:32.506Z,98945.63
2023-04-01T10:45:18.086Z,98938.56
2023-04-01T10:48:27.589Z,98948.13
2023-04-01T10:51:54.861Z,98947.09
2023-04-01T10:55:55.138Z,98939.41
2023-04-01T11:00:02.015Z,98928.94
2023-04-01T11:04:04.687Z,98931.91
2023-04-01T11:07:31.302Z,98929.03
2023-04-01T11:11:05.476Z,98932.78
2023-04-01T11:14:32.455Z,98922.28
2023-04-01T11:17:54.713Z,98924.31
2023-04-01T11:21:10.043Z,98906.75
2023-04-01T11:24:21.836Z,98908.00
2023-04-01T11:28:06.587Z,98897.47
2023-04-01T11:31:37.195Z,98903.50
2023-04-01T11:35:07.469Z,98908.28
2023-04-01T11:38:29.777Z,98917.09
2023-04-01T11:41:50.152Z,98920.38
2023-04-01T11:45:46.757Z,98932.59
2023-04-01T11:49:10.015Z,98939.50
2023-04-01T11:53:00.807Z,98949.06
2023-04-01T11:56:37.187Z,98951.59
2023-04-01T11:59:52.121Z,98947.53
2023-04-01T12:03:31.748Z,98937.78
2023-04-01T12:07:02.577Z,98938.03
2023-04-01T12:10:20.351Z,98941.88
2023-04-01T12:13:32.205Z,98942.75
2023-04-01T12:16:52.709Z,98941.38
2023-04-01T12:20:14.150Z,98934.66
2023-04-01T12:23:53.501Z,98940.63
2023-04-01T12:28:03.892Z,98938.78
2023-04-01T12:31:12.321Z,98934.53
2023-04-01T12:34:38.282Z,98932.19
2023-04-01T12:37:46.940Z,98929.88
2023-04-01T12:41:28.199Z,98938.47
2023-04-01T12:45:05.028Z,98940.53
2023-04-01T12:48:29.318Z,98936.59
2023-04-01T12:51:47.255Z,98929.84
2023-04-01T12:55:09.763Z,98924.69
2023-04-01T12:58:30.628Z,98913.59
2023-04-01T13:02:03.808Z,98926.34
2023-04-01T13:05:27.222Z,98920.22
2023-04-01T13:08:35.877Z,98918.44
2023-04-01T13:11:51.515Z,98913.22
2023-04-01T13:14:56.798Z,98911.59
2023-04-01T13:18:16.110Z,98901.78
2023-04-01T13:21:30.639Z,98902.84
2023-04-01T13:24:56.147Z,98888.16
2023-04-01T13:28:26.919Z,98894.66
2023-04-01T13:31:54.395Z,98900.50
2023-04-01T13:35:19.449Z,98905.66
2023-04-01T13:38:33.447Z,98903.72
2023-04-01T13:41:44.953Z,98899.88
2023-04-01T13:44:55.772Z,98920.16
2023-04-01T13:48:25.870Z,98909.94
2023-04-01T13:51:58.764Z,98911.44
2023-04-01T13:55:20.821Z,98914.19
2023-04-01T13:58:49.939Z,98916.13
2023-04-01T14:02:30.429Z,98922.41
2023-04-01T14:06:01.557Z,98931.44
2023-04-01T14:09:22.801Z,98938.44
2023-04-01T14:12:53.457Z,98923.34
2023-04-01T14:16:17.963Z,98949.84
2023-04-01T14:19:35.709Z,98937.56
2023-04-01T14:23:07.027Z,98950.22
2023-04-01T14:26:28.359Z,98947.28
2023-04-01T14:29:50.187Z,98947.19
2023-04-01T14:33:18.732Z,98942.16
2023-04-01T14:36:46.518Z,98946.28
2023-04-01T14:40:07.318Z,98936.38
2023-04-01T14:43:35.170Z,98919.94
2023-04-01T14:47:03.353Z,98928.13
2023-04-01T14:50:22.809Z,98924.34
2023-04-01T14:53:32.747Z,98923.09
2023-04-01T14:56:45.368Z,98927.22
2023-04-01T15:00:18.274Z,98930.66
2023-04-01T15:03:21.185Z,98933.84
2023-04-01T15:06:49.909Z,98923.38
2023-04-01T15:10:10.721Z,98923.22
2023-04-01T15:13:31.416Z,98939.72
2023-04-01T15:16:48.155Z,98929.06
2023-04-01T15:20:11.996Z,98935.34
2023-04-01T15:23:18.975Z,98926.00
2023-04-01T15:26:21.630Z,98935.09
2023-04-01T15:29:27.459Z,98942.44
2023-04-01T15:32:39.645Z,98944.38
2023-04-01T15:36:08.597Z,98947.81
2023-04-01T15:39:24.891Z,98940.63
2023-04-01T15:42:55.419Z,98935.66
2023-04-01T15:46:04.287Z,98945.06
2023-04-01T15:49:39.812Z,98950.69
2023-04-01T15:53:07.110Z,98953.63
2023-04-01T15:56:18.138Z,98955.66
2023-04-01T16:00:02.512Z,98961.44
2023-04-01T16:03:44.692Z,98956.53
2023-04-01T16:06:50.682Z,98958.38
2023-04-01T16:10:11.783Z,98954.44
2023-04-01T16:13:39.393Z,98959.81
2023-04-01T16:17:19.175Z,98960.97
2023-04-01T16:20:28.637Z,98969.19
2023-04-01T16:23:54.419Z,98967.47
2023-04-01T16:27:13.715Z,98986.78
2023-04-01T16:30:43.880Z,98984.28
2023-04-01T16:33:59.207Z,98985.91
2023-04-01T16:37:14.267Z,98982.09
2023-04-01T16:40:42.297Z,98987.19
2023-04-01T16:43:58.686Z,98983.88
2023-04-01T16:47:14.149Z,98990.78
2023-04-01T16:50:33.141Z,98984.47
2023-04-01T16:53:46.216Z,98980.97
2023-04-01T16:56:55.564Z,98998.66
2023-04-01T17:00:28.313Z,98999.75
2023-04-01T17:04:02.172Z,98995.91
2023-04-01T17:07:39.307Z,98995.09
2023-04-01T17:10:51.989Z,99013.25
2023-04-01T17:14:35.823Z,99006.03
2023-04-01T17:18:07.699Z,99011.28
2023-04-01T17:21:32.095Z,99015.81
2023-04-01T17:25:05.123Z,99020.94
2023-04-01T17:28:38.407Z,99035.19
2023-04-01T17:32:22.850Z,99024.00
2023-04-01T17:35:30.953Z,99029.88
2023-04-01T17:38:58.990Z,99036.66
2023-04-01T17:42:29.182Z,99034.69
2023-04-01T17:45:38.277Z,99032.00
2023-04-01T17:49:07.280Z,99037.69
2023-04-01T17:52:41.703Z,99043.38
2023-04-01T17:56:10.426Z,99045.59
2023-04-01T17:59:40.864Z,99053.19
2023-04-01T18:03:02.119Z,99059.88
2023-04-01T18:06:31.004Z,99061.91
2023-04-01T18:09:58.090Z,99075.22
2023-04-01T18:13:32.095Z,99075.84
2023-04-01T18:16:46.809Z,99078.69
2023-04-01T18:20:22.869Z,99082.59
2023-04-01T18:23:52.108Z,99087.56
2023-04-01T18:27:17.374Z,99087.34
2023-04-01T18:30:29.537Z,99087.50
2023-04-01T18:34:01.249Z,99102.72
2023-04-01T18:37:18.212Z,99107.56
2023-04-01T18:40:38.962Z,99109.63
2023-04-01T18:44:16.377Z,99105.47
2023-04-01T18:47:56.358Z,99111.34
2023-04-01T18:51:12.227Z,99117.22
2023-04-01T18:54:25.865Z,99120.38
2023-04-01T18:57:56.320Z,99119.53
2023-04-01T19:01:28.788Z,99127.66
2023-04-01T19:04:45.738Z,99129.84
2023-04-01T19:08:15.168Z,99121.38
2023-04-01T19:11:51.181Z,99121.75
2023-04-01T19:15:18.310Z,99119.25
2023-04-01T19:18:44.060Z,99130.25
2023-04-01T19:21:58.851Z,99133.22
2023-04-01T19:25:37.933Z,99133.94
2023-04-01T19:29:24.586Z,99129.59
2023-04-01T19:32:49.570Z,99128.28
2023-04-01T19:36:07.941Z,99134.91
2023-04-01T19:39:37.640Z,99139.44
2023-04-01T19:43:06.995Z,99146.78
2023-04-01T19:46:22.770Z,99156.06
2023-04-01T19:49:36.363Z,99146.28
2023-04-01T19:52:43.069Z,99150.44
2023-04-01T19:55:46.579Z,99152.56
2023-04-01T19:58:59.138Z,99155.59
2023-04-01T20:02:29.911Z,99154.91
2023-04-01T20:05:52.013Z,99154.56
2023-04-01T20:09:23.499Z,99158.22
2023-04-01T20:12:43.511Z,99158.75
2023-04-01T20:15:56.674Z,99160.75
2023-04-01T20:19:02.792Z,99154.63
2023-04-01T20:22:27.031Z,99153.28
2023-04-01T20:26:07.790Z,99153.78
2023-04-01T20:29:46.715Z,99151.28
2023-04-01T20:33:33.985Z,99163.94
2023-04-01T20:37:23.542Z,99157.28
2023-04-01T20:40:44.648Z,99158.59
2023-04-01T20:44:05.182Z,99162.25
2023-04-01T20:47:45.531Z,99162.91
2023-04-01T20:51:05.815Z,99162.56
2023-04-01T20:54:17.560Z,99171.91
2023-04-01T20:57:59.255Z,99178.03
2023-04-01T21:01:31.444Z,99180.19
2023-04-01T21:05:02.767Z,99192.16
2023-04-01T21:08:19.763Z,99182.16
2023-04-01T21:11:40.084Z,99189.13
2023-04-01T21:14:59.967Z,99185.31
2023-04-01T21:18:33.188Z,99196.44
2023-04-01T21:21:53.734Z,99203.06
2023-04-01T21:25:23.717Z,99193.44
2023-04-01T21:29:03.755Z,99196.72
2023-04-01T21:32:17.914Z,99199.94
2023-04-01T21:35:42.168Z,99206.31
2023-04-01T21:39:17.465Z,99199.53
2023-04-01T21:42:47.529Z,99207.53
2023-04-01T21:46:08.782Z,99211.19
2023-04-01T21:49:14.236Z,99209.94
2023-04-01T21:52:39.445Z,99212.63
2023-04-01T21:55:57.232Z,99212.50
2023-04-01T21:59:48.025Z,99212.38
2023-04-01T22:03:05.879Z,99211.03
2023-04-01T22:06:19.707Z,99211.38
2023-04-01T22:09:39.489Z,99209.38
2023-04-01T22:13:09.185Z,99214.00
2023-04-01T22:16:26.841Z,99217.53
2023-04-01T22:19:41.514Z,99216.97
2023-04-01T22:23:11.771Z,99225.63
2023-04-01T22:26:39.110Z,99224.63
2023-04-01T22:29:57.463Z,99216.47
2023-04-01T22:33:11.246Z,99233.56
2023-04-01T22:36:28.273Z,99225.59
2023-04-01T22:39:58.440Z,99236.25
2023-04-01T22:43:09.282Z,99240.88
2023-04-01T22:46:21.251Z,99248.09
2023-04-01T22:49:53.092Z,99252.94
2023-04-01T22:53:19.589Z,99251.28
2023-04-01T22:56:30.045Z,99249.44
2023-04-01T22:59:43.470Z,99256.22
2023-04-01T23:03:29.700Z,99262.69
2023-04-01T23:06:47.747Z,99262.69
2023-04-01T23:09:51.717Z,99267.09
2023-04-01T23:12:59.155Z,99267.00
2023-04-01T23:16:02.714Z,99275.97
2023-04-01T23:19:26.007Z,99273.69
2023-04-01T23:22:35.535Z,99268.66
2023-04-01T23:25:49.168Z,99269.66
2023-04-01T23:28:56.917Z,99280.97
2023-04-01T23:32:03.684Z,99274.53
2023-04-01T23:35:18.056Z,99266.50
2023-04-01T23:38:24.418Z,99262.22
2023-04-01T23:41:31.672Z,99272.22
2023-04-01T23:44:36.440Z,99275.16
2023-04-01T23:47:41.308Z,99294.63
2023-04-01T23:50:46.268Z,99298.16
2023-04-01T23:54:00.122Z,99307.84
2023-04-01T23:57:12.396Z,99308.34
